createdAt,value
2022-12-29T00:00:49.699Z,31.15
2022-12-29T00:03:52.138Z,31.45
2022-12-29T00:06:55.146Z,31.42
2022-12-29T00:09:57.443Z,30.88
2022-12-29T00:13:18.254Z,31.36
2022-12-29T00:16:20.617Z,31.43
2022-12-29T00:19:41.900Z,31.30
2022-12-29T00:23:02.462Z,31.13
2022-12-29T00:26:23.747Z,31.06
2022-12-29T00:29:55.028Z,31.29
2022-12-29T00:33:15.586Z,31.37
2022-12-29T00:36:24.762Z,31.33
2022-12-29T00:39:45.324Z,31.07
2022-12-29T00:43:06.011Z,31.24
2022-12-29T00:46:08.296Z,31.08
2022-12-29T00:49:31.356Z,31.33
2022-12-29T00:52:33.504Z,31.09
2022-12-29T00:55:38.569Z,31.22
2022-12-29T00:58:40.719Z,31.14
2022-12-29T01:01:45.628Z,31.45
2022-12-29T01:04:47.953Z,31.52
2022-12-29T01:07:52.136Z,31.36
2022-12-29T01:11:12.277Z,30.86
2022-12-29T01:14:14.897Z,30.98
2022-12-29T01:17:17.067Z,31.44
2022-12-29T01:20:20.293Z,31.01
2022-12-29T01:23:22.415Z,31.31
2022-12-29T01:26:24.605Z,30.99
2022-12-29T01:29:30.266Z,31.15
2022-12-29T01:32:32.409Z,30.92
2022-12-29T01:35:34.790Z,31.07
2022-12-29T01:38:38.204Z,31.31
2022-12-29T01:41:40.361Z,31.41
2022-12-29T01:44:51.392Z,31.08
2022-12-29T01:48:00.122Z,31.20
2022-12-29T01:51:02.275Z,30.99
2022-12-29T01:54:07.030Z,31.14
2022-12-29T01:57:14.659Z,31.16
2022-12-29T02:00:17.914Z,31.16
2022-12-29T02:03:24.999Z,31.24
2022-12-29T02:06:34.267Z,31.18
2022-12-29T02:09:36.968Z,31.13
2022-12-29T02:12:39.292Z,30.97
2022-12-29T02:15:59.470Z,31.29
2022-12-29T02:19:29.067Z,30.92
2022-12-29T02:23:17.240Z,31.00
2022-12-29T02:26:37.911Z,31.18
2022-12-29T02:29:58.841Z,30.91
2022-12-29T02:33:06.140Z,30.96
2022-12-29T02:36:20.434Z,31.30
2022-12-29T02:39:33.840Z,31.04
2022-12-29T02:42:57.736Z,30.96
2022-12-29T02:46:05.704Z,30.91
2022-12-29T02:49:15.194Z,30.97
2022-12-29T02:52:23.193Z,31.09
2022-12-29T02:55:25.471Z,30.92
2022-12-29T02:58:27.678Z,31.08
2022-12-29T03:01:33.049Z,31.04
2022-12-29T03:05:13.619Z,30.92
2022-12-29T03:08:41.327Z,30.82
2022-12-29T03:12:09.860Z,30.65
2022-12-29T03:15:35.232Z,31.24
2022-12-29T03:18:49.617Z,30.97
2022-12-29T03:22:17.828Z,31.15
2022-12-29T03:25:30.890Z,30.84
2022-12-29T03:28:39.826Z,31.00
2022-12-29T03:31:42.649Z,30.84
2022-12-29T03:34:45.717Z,31.05
2022-12-29T03:37:54.331Z,30.76
2022-12-29T03:41:01.633Z,31.11
2022-12-29T03:44:09.334Z,31.18
2022-12-29T03:47:13.558Z,30.97
2022-12-29T03:50:16.695Z,30.85
2022-12-29T03:53:20.609Z,31.09
2022-12-29T03:56:23.069Z,30.97
2022-12-29T03:59:26.420Z,30.89
2022-12-29T04:02:28.846Z,30.77
2022-12-29T04:05:32.142Z,30.61
2022-12-29T04:08:35.048Z,30.66
2022-12-29T04:11:37.465Z,31.06
2022-12-29T04:14:39.998Z,30.91
2022-12-29T04:17:42.269Z,31.04
2022-12-29T04:21:00.660Z,30.75
2022-12-29T04:24:07.284Z,30.82
2022-12-29T04:27:13.547Z,31.04
2022-12-29T04:30:30.522Z,30.67
2022-12-29T04:33:41.610Z,30.84
2022-12-29T04:36:43.719Z,30.59
2022-12-29T04:39:45.870Z,30.67
2022-12-29T04:42:48.177Z,30.70
2022-12-29T04:45:50.581Z,30.94
2022-12-29T04:49:09.657Z,30.89
2022-12-29T04:52:31.682Z,30.75
2022-12-29T04:55:34.252Z,30.97
2022-12-29T04:58:37.310Z,30.82
2022-12-29T05:01:40.555Z,30.81
2022-12-29T05:04:42.901Z,30.55
2022-12-29T05:07:45.218Z,30.89
2022-12-29T05:10:47.646Z,30.82
2022-12-29T05:13:50.803Z,30.59
2022-12-29T05:16:53.505Z,30.93
2022-12-29T05:19:56.052Z,30.90
2022-12-29T05:22:58.405Z,30.64
2022-12-29T05:26:00.710Z,30.54
2022-12-29T05:29:23.103Z,30.79
2022-12-29T05:32:27.412Z,30.82
2022-12-29T05:35:30.327Z,30.79
2022-12-29T05:38:32.720Z,30.85
2022-12-29T05:41:35.321Z,30.74
2022-12-29T05:44:56.055Z,30.77
2022-12-29T05:48:35.941Z,30.67
2022-12-29T05:51:49.334Z,30.83
2022-12-29T05:54:52.250Z,30.92
2022-12-29T05:57:58.200Z,30.62
2022-12-29T06:04:17.803Z,30.81
2022-12-29T06:07:19.911Z,30.63
2022-12-29T06:10:23.786Z,30.74
2022-12-29T06:13:39.524Z,30.91
2022-12-29T06:16:42.872Z,30.80
2022-12-29T06:19:47.512Z,30.52
2022-12-29T06:22:50.318Z,30.60
2022-12-29T06:25:53.463Z,30.70
2022-12-29T06:28:55.683Z,30.54
2022-12-29T06:31:59.313Z,30.64
2022-12-29T06:35:03.918Z,30.57
2022-12-29T06:38:06.839Z,30.85
2022-12-29T06:41:09.275Z,30.62
2022-12-29T06:44:31.330Z,30.84
2022-12-29T06:47:37.167Z,30.62
2022-12-29T06:50:39.353Z,30.75
2022-12-29T06:53:41.643Z,30.67
2022-12-29T06:56:43.831Z,30.49
2022-12-29T06:59:46.010Z,30.74
2022-12-29T07:02:48.224Z,30.64
2022-12-29T07:05:50.539Z,30.92
2022-12-29T07:08:56.453Z,30.92
2022-12-29T07:12:01.687Z,30.77
2022-12-29T07:15:04.216Z,30.86
2022-12-29T07:18:06.380Z,30.82
2022-12-29T07:21:08.538Z,30.71
2022-12-29T07:24:10.689Z,30.55
2022-12-29T07:27:12.834Z,30.55
2022-12-29T07:30:15.222Z,30.79
2022-12-29T07:33:17.329Z,30.83
2022-12-29T07:36:19.568Z,30.67
2022-12-29T07:39:21.711Z,30.88
2022-12-29T07:42:24.124Z,30.62
2022-12-29T07:45:27.776Z,30.70
2022-12-29T07:48:39.078Z,31.04
2022-12-29T07:51:41.235Z,30.67
2022-12-29T07:54:43.440Z,30.61
2022-12-29T07:57:45.599Z,31.00
2022-12-29T08:00:47.698Z,30.61
2022-12-29T08:03:56.851Z,30.85
2022-12-29T08:06:59.576Z,30.65
2022-12-29T08:10:05.182Z,31.07
2022-12-29T08:13:07.291Z,30.68
2022-12-29T08:16:09.468Z,30.75
2022-12-29T08:19:12.883Z,30.93
2022-12-29T08:22:15.886Z,30.92
2022-12-29T08:25:20.453Z,30.66
2022-12-29T08:28:22.681Z,30.71
2022-12-29T08:31:25.809Z,31.07
2022-12-29T08:34:28.106Z,30.63
2022-12-29T08:37:31.455Z,30.73
2022-12-29T08:40:33.836Z,30.84
2022-12-29T08:43:35.950Z,30.82
2022-12-29T08:46:38.191Z,30.93
2022-12-29T08:49:40.505Z,30.99
2022-12-29T08:52:42.698Z,30.89
2022-12-29T08:55:48.841Z,30.75
2022-12-29T08:58:52.439Z,31.06
2022-12-29T09:01:55.182Z,30.60
2022-12-29T09:04:58.335Z,30.74
2022-12-29T09:08:00.588Z,31.05
2022-12-29T09:11:19.262Z,30.76
2022-12-29T09:18:45.937Z,31.68
2022-12-29T09:21:48.257Z,32.52
2022-12-29T09:24:50.434Z,32.72
2022-12-29T09:27:55.925Z,32.52
2022-12-29T09:30:59.412Z,32.72
2022-12-29T09:34:01.813Z,32.53
2022-12-29T09:37:04.004Z,32.42
2022-12-29T09:40:07.412Z,32.69
2022-12-29T09:43:23.185Z,32.80
2022-12-29T09:46:30.633Z,32.69
2022-12-29T09:49:54.473Z,32.69
2022-12-29T09:53:11.064Z,33.21
2022-12-29T09:56:17.254Z,33.15
2022-12-29T09:59:22.128Z,32.81
2022-12-29T10:02:32.886Z,32.89
2022-12-29T10:06:04.660Z,33.01
2022-12-29T10:09:18.170Z,33.32
2022-12-29T10:12:42.058Z,32.91
2022-12-29T10:16:08.331Z,33.15
2022-12-29T10:19:22.438Z,33.29
2022-12-29T10:22:34.008Z,32.90
2022-12-29T10:25:39.239Z,33.41
2022-12-29T10:28:44.810Z,33.30
2022-12-29T10:32:08.269Z,32.97
2022-12-29T10:35:31.443Z,33.32
2022-12-29T10:38:44.445Z,33.14
2022-12-29T10:41:56.680Z,33.26
2022-12-29T10:45:00.009Z,32.95
2022-12-29T10:48:23.101Z,33.27
2022-12-29T10:51:34.860Z,33.20
2022-12-29T10:54:42.578Z,33.38
2022-12-29T10:57:45.743Z,33.40
2022-12-29T11:00:55.209Z,33.33
2022-12-29T11:04:02.954Z,33.41
2022-12-29T11:07:10.570Z,33.25
2022-12-29T11:10:34.021Z,33.12
2022-12-29T11:14:10.526Z,33.24
2022-12-29T11:17:16.786Z,33.56
2022-12-29T11:20:38.506Z,33.36
2022-12-29T11:23:42.108Z,33.77
2022-12-29T11:26:45.405Z,33.60
2022-12-29T11:29:47.804Z,33.88
2022-12-29T11:32:54.082Z,33.66
2022-12-29T11:36:04.142Z,33.85
2022-12-29T11:39:12.108Z,33.76
2022-12-29T11:42:23.183Z,33.57
2022-12-29T11:45:33.533Z,33.86
2022-12-29T11:48:40.771Z,33.73
2022-12-29T11:51:48.066Z,34.16
2022-12-29T11:54:50.876Z,33.51
2022-12-29T11:57:54.651Z,33.77
2022-12-29T12:00:57.253Z,33.96
2022-12-29T12:04:07.956Z,33.69
2022-12-29T12:07:19.043Z,33.81
2022-12-29T12:10:28.884Z,33.94
2022-12-29T12:13:43.827Z,33.69
2022-12-29T12:16:52.860Z,33.83
2022-12-29T12:20:00.236Z,33.74
2022-12-29T12:23:19.874Z,33.85
2022-12-29T12:26:28.654Z,34.21
2022-12-29T12:29:54.243Z,33.83
2022-12-29T12:33:00.586Z,34.05
2022-12-29T12:36:17.975Z,34.36
2022-12-29T12:39:26.886Z,34.14
2022-12-29T12:42:49.905Z,34.16
2022-12-29T12:46:21.678Z,34.08
2022-12-29T12:49:36.010Z,34.16
2022-12-29T12:53:01.318Z,34.44
2022-12-29T12:56:12.522Z,34.54
2022-12-29T12:59:39.807Z,34.52
2022-12-29T13:03:14.249Z,34.43
2022-12-29T13:06:28.254Z,34.25
2022-12-29T13:09:38.602Z,34.57
2022-12-29T13:13:42.367Z,34.47
2022-12-29T13:17:09.205Z,34.77
2022-12-29T13:20:35.689Z,34.70
2022-12-29T13:23:44.260Z,34.61
2022-12-29T13:26:54.405Z,34.58
2022-12-29T13:30:13.932Z,34.61
2022-12-29T13:33:36.220Z,34.72
2022-12-29T13:36:47.313Z,34.53
2022-12-29T13:39:56.707Z,34.61
2022-12-29T13:42:58.901Z,34.61
2022-12-29T13:46:15.344Z,34.74
2022-12-29T13:49:23.105Z,34.83
2022-12-29T13:53:14.262Z,34.83
2022-12-29T13:56:25.299Z,34.75
2022-12-29T13:59:50.161Z,34.93
2022-12-29T14:02:58.538Z,34.71
2022-12-29T14:06:18.703Z,34.69
2022-12-29T14:09:39.821Z,34.90
2022-12-29T14:12:43.617Z,34.67
2022-12-29T14:15:51.823Z,34.88
2022-12-29T14:18:58.114Z,34.88
2022-12-29T14:22:04.522Z,35.02
2022-12-29T14:25:08.926Z,35.13
2022-12-29T14:28:24.580Z,35.31
2022-12-29T14:31:29.564Z,34.84
2022-12-29T14:34:32.318Z,35.05
2022-12-29T14:37:36.338Z,35.28
2022-12-29T14:40:38.912Z,35.03
2022-12-29T14:43:41.111Z,35.28
2022-12-29T14:47:09.724Z,35.35
2022-12-29T14:50:11.810Z,35.14
2022-12-29T14:53:43.090Z,35.06
2022-12-29T14:56:45.369Z,35.27
2022-12-29T14:59:48.461Z,35.13
2022-12-29T15:03:37.679Z,34.87
2022-12-29T15:06:42.709Z,34.71
2022-12-29T15:10:09.788Z,35.04
2022-12-29T15:13:18.092Z,34.97
2022-12-29T15:16:30.728Z,35.06
2022-12-29T15:19:32.956Z,35.09
2022-12-29T15:22:35.154Z,34.93
2022-12-29T15:25:37.452Z,34.83
2022-12-29T15:28:40.960Z,34.94
2022-12-29T15:31:49.929Z,34.62
2022-12-29T15:34:54.633Z,34.87
2022-12-29T15:37:57.092Z,34.65
2022-12-29T15:41:03.802Z,34.86
2022-12-29T15:44:17.589Z,34.47
2022-12-29T15:47:30.448Z,34.75
2022-12-29T15:50:34.148Z,34.31
2022-12-29T15:53:36.345Z,34.28
2022-12-29T15:56:38.520Z,34.48
2022-12-29T15:59:47.019Z,34.36
2022-12-29T16:02:49.373Z,34.45
2022-12-29T16:06:09.469Z,34.53
2022-12-29T16:09:17.674Z,34.40
2022-12-29T16:12:22.832Z,34.41
2022-12-29T16:15:28.684Z,34.24
2022-12-29T16:18:36.617Z,34.42
2022-12-29T16:21:38.823Z,34.34
2022-12-29T16:24:41.530Z,34.12
2022-12-29T16:27:44.281Z,33.99
2022-12-29T16:30:46.496Z,33.94
2022-12-29T16:33:54.112Z,34.29
2022-12-29T16:37:29.802Z,33.86
2022-12-29T16:40:32.163Z,33.97
2022-12-29T16:43:42.553Z,33.94
2022-12-29T16:47:11.997Z,33.83
2022-12-29T16:50:28.060Z,33.96
2022-12-29T16:53:35.465Z,33.56
2022-12-29T16:56:39.674Z,33.72
2022-12-29T16:59:44.966Z,33.75
2022-12-29T17:02:48.270Z,33.76
2022-12-29T17:05:57.096Z,33.51
2022-12-29T17:08:59.829Z,33.69
2022-12-29T17:12:10.766Z,33.56
2022-12-29T17:15:24.800Z,33.51
2022-12-29T17:18:26.970Z,33.55
2022-12-29T17:21:29.192Z,33.33
2022-12-29T17:24:31.457Z,33.44
2022-12-29T17:27:39.254Z,33.32
2022-12-29T17:30:41.562Z,33.90
2022-12-29T17:33:44.693Z,33.84
2022-12-29T17:36:46.859Z,33.42
2022-12-29T17:39:48.955Z,33.44
2022-12-29T17:42:53.829Z,33.49
2022-12-29T17:45:57.828Z,33.35
2022-12-29T17:49:00.571Z,33.50
2022-12-29T17:52:03.035Z,33.36
2022-12-29T17:55:05.471Z,33.56
2022-12-29T17:58:19.931Z,33.80
2022-12-29T18:01:22.305Z,33.57
2022-12-29T18:04:24.766Z,33.26
2022-12-29T18:07:34.050Z,33.39
2022-12-29T18:10:39.114Z,33.52
2022-12-29T18:13:46.259Z,33.34
2022-12-29T18:16:48.999Z,33.46
2022-12-29T18:19:54.609Z,33.64
2022-12-29T18:22:58.807Z,33.49
2022-12-29T18:26:06.346Z,33.54
2022-12-29T18:29:08.488Z,33.67
2022-12-29T18:32:14.385Z,33.64
2022-12-29T18:35:26.308Z,33.36
2022-12-29T18:38:29.724Z,33.53
2022-12-29T18:41:32.020Z,33.32
2022-12-29T18:44:34.701Z,33.66
2022-12-29T18:47:36.870Z,33.27
2022-12-29T18:50:39.119Z,33.35
2022-12-29T18:53:41.237Z,33.20
2022-12-29T18:56:43.365Z,33.18
2022-12-29T18:59:45.524Z,33.20
2022-12-29T19:02:48.366Z,33.52
2022-12-29T19:05:50.554Z,33.28
2022-12-29T19:08:52.854Z,33.52
2022-12-29T19:11:55.021Z,33.51
2022-12-29T19:14:57.216Z,33.27
2022-12-29T19:18:41.747Z,33.44
2022-12-29T19:21:23.995Z,33.50
2022-12-29T19:24:26.175Z,33.21
2022-12-29T19:27:28.353Z,33.35
2022-12-29T19:30:30.601Z,33.44
2022-12-29T19:33:32.822Z,33.25
2022-12-29T19:36:35.393Z,33.14
2022-12-29T19:39:37.503Z,33.22
2022-12-29T19:42:40.070Z,33.47
2022-12-29T19:45:44.270Z,33.35
2022-12-29T19:48:46.455Z,33.17
2022-12-29T19:51:48.626Z,33.49
2022-12-29T19:54:50.734Z,33.37
2022-12-29T19:57:52.960Z,33.57
2022-12-29T20:00:55.170Z,33.09
2022-12-29T20:03:57.807Z,33.20
2022-12-29T20:07:00.137Z,33.46
2022-12-29T20:10:02.730Z,33.42
2022-12-29T20:13:06.086Z,33.50
2022-12-29T20:16:11.809Z,33.15
2022-12-29T20:19:14.053Z,33.38
2022-12-29T20:22:16.312Z,33.22
2022-12-29T20:25:44.160Z,33.47
2022-12-29T20:28:40.841Z,33.28
2022-12-29T20:31:43.167Z,33.13
2022-12-29T20:34:45.837Z,33.33
2022-12-29T20:37:47.986Z,33.20
2022-12-29T20:40:50.253Z,33.21
2022-12-29T20:43:55.260Z,33.42
2022-12-29T20:46:57.550Z,33.12
2022-12-29T20:49:59.721Z,33.05
2022-12-29T20:53:01.878Z,33.37
2022-12-29T20:56:07.098Z,33.41
2022-12-29T20:59:26.893Z,33.35
2022-12-29T21:02:30.184Z,33.43
2022-12-29T21:05:32.468Z,33.23
2022-12-29T21:08:35.749Z,33.16
2022-12-29T21:11:37.940Z,33.49
2022-12-29T21:14:45.357Z,33.25
2022-12-29T21:17:47.877Z,33.16
2022-12-29T21:21:01.783Z,33.31
2022-12-29T21:24:06.914Z,33.35
2022-12-29T21:27:09.034Z,33.53
2022-12-29T21:30:12.273Z,33.35
2022-12-29T21:33:15.672Z,33.48
2022-12-29T21:36:17.794Z,33.53
2022-12-29T21:39:19.976Z,33.12
2022-12-29T21:42:22.203Z,33.54
2022-12-29T21:45:27.514Z,33.44
2022-12-29T21:48:30.235Z,33.39
2022-12-29T21:51:50.825Z,33.22
2022-12-29T21:55:01.627Z,33.37
2022-12-29T21:58:22.153Z,33.10
2022-12-29T22:01:44.532Z,33.26
2022-12-29T22:05:05.352Z,33.36
2022-12-29T22:08:26.133Z,33.48
2022-12-29T22:11:46.964Z,33.46
2022-12-29T22:14:49.089Z,33.28
2022-12-29T22:17:53.750Z,33.10
2022-12-29T22:20:55.876Z,33.42
2022-12-29T22:23:57.983Z,33.41
2022-12-29T22:27:00.875Z,33.17
2022-12-29T22:30:03.829Z,33.44
2022-12-29T22:33:06.021Z,33.26
2022-12-29T22:36:08.265Z,33.48
2022-12-29T22:39:10.576Z,33.19
2022-12-29T22:42:12.764Z,33.64
2022-12-29T22:45:15.281Z,33.16
2022-12-29T22:48:17.445Z,33.31
2022-12-29T22:51:19.636Z,33.25
2022-12-29T22:54:21.913Z,33.49
2022-12-29T22:57:24.207Z,33.57
2022-12-29T23:00:26.313Z,33.31
2022-12-29T23:03:28.559Z,33.43
2022-12-29T23:06:31.327Z,33.15
2022-12-29T23:09:33.614Z,33.48
2022-12-29T23:12:35.867Z,33.55
2022-12-29T23:15:38.124Z,33.28
2022-12-29T23:18:40.334Z,33.56
2022-12-29T23:21:42.539Z,33.18
2022-12-29T23:24:44.662Z,33.72
2022-12-29T23:27:46.762Z,33.61
2022-12-29T23:30:49.013Z,33.54
2022-12-29T23:33:51.613Z,33.67
2022-12-29T23:36:53.773Z,33.48
2022-12-29T23:39:55.884Z,33.79
2022-12-29T23:42:58.008Z,33.48
2022-12-29T23:46:09.099Z,33.76
2022-12-29T23:49:11.645Z,33.70
2022-12-29T23:52:13.804Z,33.86
2022-12-29T23:55:16.121Z,33.89
2022-12-29T23:58:18.233Z,33.91
